createdAt,value
2018-07-27T00:02:14.072Z,27.90
2018-07-27T00:04:42.277Z,27.90
2018-07-27T00:07:10.434Z,27.90
2018-07-27T00:09:38.570Z,27.90
2018-07-27T00:12:06.717Z,27.80
2018-07-27T00:14:34.829Z,27.80
2018-07-27T00:17:02.966Z,27.80
2018-07-27T00:19:31.101Z,27.80
2018-07-27T00:21:59.234Z,27.70
2018-07-27T00:24:27.375Z,27.70
2018-07-27T00:26:55.510Z,27.70
2018-07-27T00:29:23.637Z,27.70
2018-07-27T00:31:51.825Z,27.60
2018-07-27T00:34:19.967Z,27.60
2018-07-27T00:36:48.108Z,27.60
2018-07-27T00:39:16.238Z,27.50
2018-07-27T00:41:44.369Z,27.50
2018-07-27T00:44:12.533Z,27.50
2018-07-27T00:46:40.678Z,27.50
2018-07-27T00:49:08.812Z,27.40
2018-07-27T00:51:36.946Z,27.40
2018-07-27T00:54:05.074Z,27.40
2018-07-27T00:56:33.201Z,27.30
2018-07-27T00:59:01.334Z,27.30
2018-07-27T01:01:29.450Z,27.30
2018-07-27T01:03:57.625Z,27.20
2018-07-27T01:06:25.794Z,27.20
2018-07-27T01:08:53.959Z,27.10
2018-07-27T01:11:22.111Z,27.10
2018-07-27T01:13:50.274Z,27.10
2018-07-27T01:16:18.417Z,27.00
2018-07-27T01:18:46.577Z,27.00
2018-07-27T01:21:14.742Z,27.00
2018-07-27T01:23:42.920Z,26.90
2018-07-27T01:26:11.074Z,26.90
2018-07-27T01:28:39.230Z,26.80
2018-07-27T01:31:07.392Z,26.80
2018-07-27T01:33:35.542Z,26.70
2018-07-27T01:36:03.754Z,26.70
2018-07-27T01:38:31.930Z,26.70
2018-07-27T01:41:00.105Z,26.70
2018-07-27T01:43:28.268Z,26.60
2018-07-27T01:45:56.425Z,26.60
2018-07-27T01:48:24.584Z,26.50
2018-07-27T01:50:52.815Z,26.50
2018-07-27T01:53:20.921Z,26.40
2018-07-27T01:55:49.083Z,26.40
2018-07-27T01:58:17.240Z,26.40
2018-07-27T02:00:45.389Z,26.30
2018-07-27T02:03:13.554Z,26.30
2018-07-27T02:05:41.773Z,26.20
2018-07-27T02:08:09.940Z,26.10
2018-07-27T02:10:38.092Z,26.10
2018-07-27T02:13:06.311Z,26.00
2018-07-27T02:15:34.437Z,25.90
2018-07-27T02:18:02.653Z,25.90
2018-07-27T02:20:30.814Z,25.90
2018-07-27T02:22:58.961Z,25.80
2018-07-27T02:25:27.140Z,25.80
2018-07-27T02:27:55.290Z,25.70
2018-07-27T02:32:51.319Z,25.60
2018-07-27T02:35:19.451Z,25.60
2018-07-27T02:37:47.590Z,25.50
2018-07-27T02:40:15.738Z,25.50
2018-07-27T02:42:43.881Z,25.50
2018-07-27T02:45:12.032Z,25.40
2018-07-27T02:47:40.162Z,25.40
2018-07-27T02:50:08.297Z,25.40
2018-07-27T02:52:36.483Z,25.30
2018-07-27T02:55:04.659Z,25.30
2018-07-27T02:57:32.792Z,25.30
2018-07-27T03:00:00.920Z,25.20
2018-07-27T03:02:29.046Z,25.20
2018-07-27T03:04:57.182Z,25.20
2018-07-27T03:07:25.321Z,25.20
2018-07-27T03:09:53.563Z,25.10
2018-07-27T03:12:21.589Z,25.10
2018-07-27T03:14:49.745Z,25.00
2018-07-27T03:17:17.887Z,25.00
2018-07-27T03:19:46.001Z,25.00
2018-07-27T03:22:14.139Z,24.90
2018-07-27T03:24:42.298Z,24.90
2018-07-27T03:27:10.417Z,24.90
2018-07-27T03:29:38.561Z,24.90
2018-07-27T03:32:06.686Z,24.80
2018-07-27T03:37:02.704Z,24.80
2018-07-27T03:39:30.861Z,24.70
2018-07-27T03:41:58.983Z,24.70
2018-07-27T03:44:27.114Z,24.70
2018-07-27T03:46:55.216Z,24.60
2018-07-27T03:49:23.353Z,24.60
2018-07-27T03:51:51.480Z,24.60
2018-07-27T03:54:19.615Z,24.50
2018-07-27T03:56:47.749Z,24.50
2018-07-27T03:59:15.870Z,24.50
2018-07-27T04:01:44.018Z,24.50
2018-07-27T04:04:12.150Z,24.40
2018-07-27T04:06:40.282Z,24.40
2018-07-27T04:09:09.174Z,24.40
2018-07-27T04:11:37.538Z,24.40
2018-07-27T04:14:05.896Z,24.40
2018-07-27T04:16:34.079Z,24.40
2018-07-27T04:19:02.325Z,24.40
2018-07-27T04:21:30.755Z,24.30
2018-07-27T04:23:58.933Z,24.30
2018-07-27T04:26:27.320Z,24.30
2018-07-27T04:28:55.374Z,24.30
2018-07-27T04:31:23.551Z,24.30
2018-07-27T04:33:51.722Z,24.30
2018-07-27T04:36:19.858Z,24.30
2018-07-27T04:38:48.010Z,24.20
2018-07-27T04:41:16.143Z,24.20
2018-07-27T04:43:44.283Z,24.20
2018-07-27T04:46:12.418Z,24.20
2018-07-27T04:48:40.630Z,24.20
2018-07-27T04:51:08.762Z,24.20
2018-07-27T04:56:05.349Z,24.20
2018-07-27T04:58:33.474Z,24.20
2018-07-27T05:01:01.623Z,24.30
2018-07-27T05:03:29.781Z,24.20
2018-07-27T05:05:57.900Z,24.30
2018-07-27T05:08:26.031Z,24.30
2018-07-27T05:10:54.170Z,24.40
2018-07-27T05:13:22.298Z,24.40
2018-07-27T05:15:50.444Z,24.40
2018-07-27T05:18:18.885Z,24.50
2018-07-27T05:20:47.228Z,24.50
2018-07-27T05:23:15.366Z,24.50
2018-07-27T05:25:43.472Z,24.50
2018-07-27T05:28:11.626Z,24.60
2018-07-27T05:30:39.763Z,24.60
2018-07-27T05:33:07.890Z,24.70
2018-07-27T05:35:36.014Z,24.70
2018-07-27T05:38:04.152Z,24.80
2018-07-27T05:40:32.285Z,24.80
2018-07-27T05:43:00.420Z,24.90
2018-07-27T05:45:28.554Z,24.90
2018-07-27T05:47:56.702Z,25.00
2018-07-27T05:50:24.826Z,25.00
2018-07-27T05:52:52.979Z,25.10
2018-07-27T05:55:21.099Z,25.10
2018-07-27T05:57:49.270Z,25.20
2018-07-27T06:00:17.396Z,25.20
2018-07-27T06:02:45.610Z,25.30
2018-07-27T06:05:13.651Z,25.40
2018-07-27T06:07:41.778Z,25.40
2018-07-27T06:10:09.899Z,25.50
2018-07-27T06:12:38.071Z,25.60
2018-07-27T06:15:06.533Z,25.60
2018-07-27T06:17:34.691Z,25.60
2018-07-27T06:20:02.892Z,25.70
2018-07-27T06:22:31.007Z,25.70
2018-07-27T06:24:59.129Z,25.80
2018-07-27T06:27:27.261Z,25.90
2018-07-27T06:29:55.396Z,25.90
2018-07-27T06:32:23.516Z,25.90
2018-07-27T06:34:51.641Z,26.00
2018-07-27T06:39:47.662Z,26.10
2018-07-27T06:42:15.885Z,26.10
2018-07-27T06:44:44.063Z,26.20
2018-07-27T06:47:12.189Z,26.20
2018-07-27T06:49:40.316Z,26.30
2018-07-27T06:52:08.531Z,26.30
2018-07-27T06:54:36.666Z,26.40
2018-07-27T06:57:04.795Z,26.50
2018-07-27T06:59:32.921Z,26.50
2018-07-27T07:02:01.037Z,26.60
2018-07-27T07:06:57.131Z,26.70
2018-07-27T07:09:25.255Z,26.80
2018-07-27T07:11:53.396Z,26.80
2018-07-27T07:14:21.537Z,26.90
2018-07-27T07:16:49.671Z,27.00
2018-07-27T07:19:17.846Z,27.10
2018-07-27T07:21:46.001Z,27.10
2018-07-27T07:24:14.132Z,27.20
2018-07-27T07:26:42.257Z,27.20
2018-07-27T07:29:10.386Z,27.30
2018-07-27T07:31:38.521Z,27.40
2018-07-27T07:34:06.649Z,27.50
2018-07-27T07:36:34.786Z,27.60
2018-07-27T07:39:03.042Z,27.60
2018-07-27T07:41:31.169Z,27.70
2018-07-27T07:43:59.281Z,27.80
2018-07-27T07:46:27.429Z,27.90
2018-07-27T07:49:00.034Z,28.00
2018-07-27T07:51:28.171Z,28.10
2018-07-27T07:53:56.302Z,28.20
2018-07-27T07:56:24.432Z,28.30
2018-07-27T07:58:52.562Z,28.40
2018-07-27T08:01:20.694Z,28.50
2018-07-27T08:03:48.898Z,28.50
2018-07-27T08:06:17.115Z,28.60
2018-07-27T08:08:45.246Z,28.70
2018-07-27T08:11:13.413Z,28.80
2018-07-27T08:13:41.511Z,28.90
2018-07-27T08:16:09.673Z,29.00
2018-07-27T08:18:37.837Z,29.00
2018-07-27T08:21:06.188Z,29.10
2018-07-27T08:23:34.309Z,29.20
2018-07-27T08:26:38.968Z,29.30
2018-07-27T08:29:08.277Z,29.40
2018-07-27T08:31:36.444Z,29.50
2018-07-27T08:34:04.913Z,29.50
2018-07-27T08:36:33.924Z,29.60
2018-07-27T08:39:03.273Z,29.60
2018-07-27T08:41:31.351Z,29.70
2018-07-27T08:43:59.512Z,29.80
2018-07-27T08:46:27.664Z,29.80
2018-07-27T08:48:56.306Z,29.90
2018-07-27T08:51:24.531Z,30.00
2018-07-27T08:53:53.061Z,30.00
2018-07-27T08:56:21.246Z,30.10
2018-07-27T08:58:49.341Z,30.20
2018-07-27T09:03:45.978Z,30.20
2018-07-27T09:06:14.109Z,30.30
2018-07-27T09:08:42.300Z,30.40
2018-07-27T09:11:10.460Z,30.40
2018-07-27T09:13:38.587Z,30.50
2018-07-27T09:16:06.946Z,30.50
2018-07-27T09:18:35.082Z,30.50
2018-07-27T09:21:03.210Z,30.60
2018-07-27T09:23:31.335Z,30.70
2018-07-27T09:25:59.442Z,30.80
2018-07-27T09:28:27.906Z,30.80
2018-07-27T09:30:56.807Z,30.80
2018-07-27T09:33:24.970Z,30.90
2018-07-27T09:35:53.458Z,30.90
2018-07-27T09:38:21.840Z,30.90
2018-07-27T09:40:50.002Z,31.00
2018-07-27T09:43:19.237Z,31.10
2018-07-27T09:45:47.389Z,31.10
2018-07-27T09:48:15.568Z,31.10
2018-07-27T09:50:44.759Z,31.20
2018-07-27T09:53:13.442Z,31.20
2018-07-27T09:55:41.841Z,31.30
2018-07-27T09:58:10.302Z,31.30
2018-07-27T10:00:43.671Z,31.30
2018-07-27T10:03:11.805Z,31.40
2018-07-27T10:05:39.944Z,31.50
2018-07-27T10:08:08.130Z,31.50
2018-07-27T10:10:36.789Z,31.60
2018-07-27T10:13:05.038Z,31.60
2018-07-27T10:15:33.233Z,31.60
2018-07-27T10:18:01.639Z,31.70
2018-07-27T10:20:29.802Z,31.70
2018-07-27T10:22:57.950Z,31.70
2018-07-27T10:25:26.102Z,31.80
2018-07-27T10:27:54.260Z,31.80
2018-07-27T10:30:22.397Z,31.90
2018-07-27T10:32:50.540Z,31.90
2018-07-27T10:35:18.665Z,31.90
2018-07-27T10:37:46.801Z,31.90
2018-07-27T10:40:14.932Z,32.00
2018-07-27T10:42:43.063Z,32.00
2018-07-27T10:45:11.227Z,32.10
2018-07-27T10:47:39.373Z,32.10
2018-07-27T10:50:07.551Z,32.20
2018-07-27T10:52:35.677Z,32.20
2018-07-27T10:55:03.830Z,32.30
2018-07-27T10:57:31.960Z,32.30
2018-07-27T11:00:00.082Z,32.30
2018-07-27T11:02:28.252Z,32.40
2018-07-27T11:04:56.355Z,32.40
2018-07-27T11:07:24.491Z,32.40
2018-07-27T11:09:52.676Z,32.40
2018-07-27T11:12:20.741Z,32.50
2018-07-27T11:14:48.873Z,32.50
2018-07-27T11:17:17.051Z,32.50
2018-07-27T11:19:45.119Z,32.60
2018-07-27T11:22:13.234Z,32.60
2018-07-27T11:24:41.358Z,32.70
2018-07-27T11:27:09.493Z,32.70
2018-07-27T11:32:05.624Z,32.80
2018-07-27T11:34:33.753Z,32.80
2018-07-27T11:37:01.900Z,32.80
2018-07-27T11:39:30.117Z,32.80
2018-07-27T11:41:58.256Z,32.80
2018-07-27T11:44:26.399Z,32.90
2018-07-27T11:46:54.526Z,32.90
2018-07-27T11:49:22.670Z,33.00
2018-07-27T11:51:50.807Z,33.00
2018-07-27T11:54:18.934Z,33.00
2018-07-27T11:56:47.091Z,33.10
2018-07-27T11:59:15.222Z,33.10
2018-07-27T12:01:43.373Z,33.10
2018-07-27T12:04:11.500Z,33.10
2018-07-27T12:06:39.665Z,33.20
2018-07-27T12:09:09.437Z,33.20
2018-07-27T12:11:37.586Z,33.20
2018-07-27T12:14:05.970Z,33.30
2018-07-27T12:16:33.872Z,33.30
2018-07-27T12:19:01.999Z,33.30
2018-07-27T12:21:30.218Z,33.30
2018-07-27T12:23:58.324Z,33.30
2018-07-27T12:26:26.455Z,33.30
2018-07-27T12:28:54.592Z,33.30
2018-07-27T12:31:22.750Z,33.30
2018-07-27T12:33:50.915Z,33.30
2018-07-27T12:36:19.064Z,33.40
2018-07-27T12:38:47.284Z,33.40
2018-07-27T12:41:15.425Z,33.40
2018-07-27T12:43:43.585Z,33.40
2018-07-27T12:46:11.734Z,33.40
2018-07-27T12:48:39.880Z,33.40
2018-07-27T12:51:08.024Z,33.40
2018-07-27T12:53:36.169Z,33.50
2018-07-27T12:56:04.310Z,33.50
2018-07-27T12:58:32.469Z,33.40
2018-07-27T13:01:00.598Z,33.50
2018-07-27T13:03:28.736Z,33.50
2018-07-27T13:05:56.881Z,33.40
2018-07-27T13:08:25.066Z,33.40
2018-07-27T13:10:53.226Z,33.40
2018-07-27T13:15:49.225Z,33.40
2018-07-27T13:18:17.334Z,33.40
2018-07-27T13:20:51.850Z,33.40
2018-07-27T13:23:20.927Z,33.40
2018-07-27T13:26:29.160Z,33.40
2018-07-27T13:28:42.446Z,33.40
2018-07-27T13:31:11.546Z,33.40
2018-07-27T13:33:51.015Z,33.40
2018-07-27T13:36:19.135Z,33.40
2018-07-27T13:38:47.286Z,33.40
2018-07-27T13:41:15.413Z,33.40
2018-07-27T13:43:43.590Z,33.30
2018-07-27T13:46:11.701Z,33.30
2018-07-27T13:48:39.813Z,33.30
2018-07-27T13:51:07.950Z,33.30
2018-07-27T13:53:36.069Z,33.30
2018-07-27T13:56:05.062Z,33.30
2018-07-27T13:58:33.182Z,33.30
2018-07-27T14:01:01.326Z,33.30
2018-07-27T14:03:29.467Z,33.30
2018-07-27T14:05:57.725Z,33.30
2018-07-27T14:08:25.841Z,33.20
2018-07-27T14:10:54.001Z,33.30
2018-07-27T14:13:22.135Z,33.30
2018-07-27T14:15:50.307Z,33.30
2018-07-27T14:18:18.478Z,33.30
2018-07-27T14:20:46.626Z,33.30
2018-07-27T14:23:14.766Z,33.30
2018-07-27T14:25:42.903Z,33.30
2018-07-27T14:28:11.039Z,33.30
2018-07-27T14:30:39.228Z,33.20
2018-07-27T14:33:07.354Z,33.20
2018-07-27T14:35:35.507Z,33.30
2018-07-27T14:38:03.623Z,33.20
2018-07-27T14:40:31.819Z,33.20
2018-07-27T14:42:59.966Z,33.30
2018-07-27T14:45:28.122Z,33.20
2018-07-27T14:47:56.257Z,33.30
2018-07-27T14:50:24.444Z,33.30
2018-07-27T14:52:52.606Z,33.30
2018-07-27T14:55:20.725Z,33.20
2018-07-27T14:57:48.871Z,33.20
2018-07-27T15:00:17.014Z,33.20
2018-07-27T15:02:45.165Z,33.20
2018-07-27T15:07:41.241Z,33.20
2018-07-27T15:10:09.393Z,33.20
2018-07-27T15:12:37.531Z,33.30
2018-07-27T15:15:05.737Z,33.20
2018-07-27T15:17:33.830Z,33.30
2018-07-27T15:20:01.961Z,33.30
2018-07-27T15:22:30.130Z,33.30
2018-07-27T15:24:58.284Z,33.30
2018-07-27T15:27:26.425Z,33.30
2018-07-27T15:29:54.572Z,33.30
2018-07-27T15:32:22.810Z,33.30
2018-07-27T15:37:18.863Z,33.30
2018-07-27T15:39:47.010Z,33.30
2018-07-27T15:42:15.181Z,33.30
2018-07-27T15:44:43.313Z,33.30
2018-07-27T15:47:11.471Z,33.20
2018-07-27T15:49:39.605Z,33.20
2018-07-27T15:52:07.761Z,33.30
2018-07-27T15:54:35.900Z,33.20
2018-07-27T15:57:04.422Z,33.20
2018-07-27T15:59:33.141Z,33.20
2018-07-27T16:04:29.191Z,33.20
2018-07-27T16:09:25.279Z,33.20
2018-07-27T16:11:53.433Z,33.20
2018-07-27T16:14:21.551Z,33.20
2018-07-27T16:16:49.733Z,33.20
2018-07-27T16:19:17.861Z,33.20
2018-07-27T16:21:46.017Z,33.10
2018-07-27T16:24:14.123Z,33.10
2018-07-27T16:26:42.616Z,33.10
2018-07-27T16:29:10.763Z,33.10
2018-07-27T16:31:38.898Z,33.10
2018-07-27T16:34:07.078Z,33.10
2018-07-27T16:36:35.245Z,33.10
2018-07-27T16:39:04.069Z,33.00
2018-07-27T16:41:32.264Z,33.00
2018-07-27T16:44:00.392Z,33.00
2018-07-27T16:46:28.525Z,33.00
2018-07-27T16:48:56.694Z,32.90
2018-07-27T16:51:24.865Z,32.90
2018-07-27T16:53:53.001Z,32.90
2018-07-27T16:56:21.137Z,32.90
2018-07-27T16:58:49.278Z,32.90
2018-07-27T17:01:17.510Z,32.80
2018-07-27T17:03:45.654Z,32.80
2018-07-27T17:06:13.841Z,32.80
2018-07-27T17:08:41.931Z,32.80
2018-07-27T17:11:10.099Z,32.80
2018-07-27T17:13:38.262Z,32.80
2018-07-27T17:16:06.401Z,32.80
2018-07-27T17:18:34.576Z,32.70
2018-07-27T17:21:02.727Z,32.70
2018-07-27T17:23:30.877Z,32.70
2018-07-27T17:25:59.010Z,32.70
2018-07-27T17:28:27.186Z,32.70
2018-07-27T17:30:55.254Z,32.70
2018-07-27T17:33:23.389Z,32.60
2018-07-27T17:35:51.537Z,32.60
2018-07-27T17:38:19.671Z,32.60
2018-07-27T17:40:47.853Z,32.60
2018-07-27T17:43:15.994Z,32.60
2018-07-27T17:45:44.129Z,32.60
2018-07-27T17:48:12.261Z,32.50
2018-07-27T17:50:40.431Z,32.50
2018-07-27T17:53:08.567Z,32.50
2018-07-27T17:55:36.705Z,32.40
2018-07-27T17:58:04.854Z,32.40
2018-07-27T18:00:32.980Z,32.40
2018-07-27T18:03:01.100Z,32.40
2018-07-27T18:05:29.241Z,32.40
2018-07-27T18:07:57.477Z,32.30
2018-07-27T18:10:25.517Z,32.30
2018-07-27T18:12:53.688Z,32.30
2018-07-27T18:15:21.830Z,32.20
2018-07-27T18:17:50.018Z,32.20
2018-07-27T18:20:18.149Z,32.20
2018-07-27T18:22:46.294Z,32.20
2018-07-27T18:25:16.804Z,32.20
2018-07-27T18:27:45.892Z,32.10
2018-07-27T18:30:14.052Z,32.10
2018-07-27T18:32:42.235Z,32.10
2018-07-27T18:35:10.517Z,32.00
2018-07-27T18:37:39.310Z,32.00
2018-07-27T18:40:08.814Z,31.90
2018-07-27T18:42:37.202Z,31.90
2018-07-27T18:45:05.969Z,31.90
2018-07-27T18:47:34.120Z,31.90
2018-07-27T18:50:02.274Z,31.80
2018-07-27T18:52:30.415Z,31.80
2018-07-27T18:54:58.819Z,31.70
2018-07-27T18:57:26.945Z,31.70
2018-07-27T18:59:55.084Z,31.70
2018-07-27T19:02:23.246Z,31.60
2018-07-27T19:04:51.390Z,31.60
2018-07-27T19:07:19.559Z,31.50
2018-07-27T19:09:47.673Z,31.50
2018-07-27T19:12:15.805Z,31.40
2018-07-27T19:14:44.016Z,31.40
2018-07-27T19:17:12.337Z,31.30
2018-07-27T19:19:40.497Z,31.30
2018-07-27T19:22:08.634Z,31.20
2018-07-27T19:24:36.806Z,31.20
2018-07-27T19:27:04.938Z,31.10
2018-07-27T19:29:33.081Z,31.10
2018-07-27T19:32:01.232Z,31.00
2018-07-27T19:34:29.386Z,31.00
2018-07-27T19:36:57.533Z,30.90
2018-07-27T19:39:25.687Z,30.90
2018-07-27T19:41:53.813Z,30.80
2018-07-27T19:44:22.005Z,30.80
2018-07-27T19:46:50.120Z,30.70
2018-07-27T19:49:18.249Z,30.60
2018-07-27T19:51:46.439Z,30.60
2018-07-27T19:54:14.587Z,30.50
2018-07-27T19:56:42.705Z,30.50
2018-07-27T19:59:10.871Z,30.40
2018-07-27T20:01:39.006Z,30.40
2018-07-27T20:04:07.152Z,30.30
2018-07-27T20:06:35.316Z,30.30
2018-07-27T20:09:05.691Z,30.20
2018-07-27T20:11:33.828Z,30.20
2018-07-27T20:14:01.991Z,30.10
2018-07-27T20:16:30.155Z,30.10
2018-07-27T20:18:58.302Z,30.10
2018-07-27T20:21:26.517Z,30.00
2018-07-27T20:23:54.601Z,30.00
2018-07-27T20:26:22.743Z,30.00
2018-07-27T20:28:50.889Z,29.90
2018-07-27T20:31:19.021Z,29.90
2018-07-27T20:33:47.142Z,29.90
2018-07-27T20:36:15.283Z,29.90
2018-07-27T20:38:43.413Z,29.80
2018-07-27T20:41:11.541Z,29.80
2018-07-27T20:43:39.682Z,29.80
2018-07-27T20:46:07.830Z,29.70
2018-07-27T20:48:35.995Z,29.70
2018-07-27T20:51:04.081Z,29.70
2018-07-27T20:53:32.225Z,29.60
2018-07-27T20:56:00.374Z,29.60
2018-07-27T20:58:28.502Z,29.60
2018-07-27T21:00:56.674Z,29.50
2018-07-27T21:03:24.834Z,29.50
2018-07-27T21:05:52.974Z,29.50
2018-07-27T21:08:21.098Z,29.40
2018-07-27T21:10:49.320Z,29.40
2018-07-27T21:13:17.444Z,29.40
2018-07-27T21:15:45.582Z,29.40
2018-07-27T21:18:13.727Z,29.40
2018-07-27T21:20:41.846Z,29.30
2018-07-27T21:23:10.032Z,29.30
2018-07-27T21:25:38.177Z,29.30
2018-07-27T21:28:06.295Z,29.30
2018-07-27T21:30:34.446Z,29.30
2018-07-27T21:33:02.578Z,29.30
2018-07-27T21:35:30.975Z,29.30
2018-07-27T21:37:59.201Z,29.30
2018-07-27T21:40:27.336Z,29.20
2018-07-27T21:42:55.493Z,29.20
2018-07-27T21:45:23.654Z,29.20
2018-07-27T21:47:51.799Z,29.20
2018-07-27T21:50:19.913Z,29.20
2018-07-27T21:52:48.053Z,29.20
2018-07-27T21:55:16.177Z,29.20
2018-07-27T21:57:44.660Z,29.20
2018-07-27T22:00:12.798Z,29.20
2018-07-27T22:02:40.930Z,29.20
2018-07-27T22:05:09.146Z,29.20
2018-07-27T22:07:37.655Z,29.20
2018-07-27T22:10:05.891Z,29.20
2018-07-27T22:12:34.017Z,29.20
2018-07-27T22:15:02.149Z,29.20
2018-07-27T22:17:30.282Z,29.20
2018-07-27T22:19:58.422Z,29.20
2018-07-27T22:22:26.552Z,29.20
2018-07-27T22:24:54.678Z,29.10
2018-07-27T22:27:22.819Z,29.10
2018-07-27T22:29:50.946Z,29.10
2018-07-27T22:32:19.089Z,29.10
2018-07-27T22:34:47.206Z,29.10
2018-07-27T22:37:15.333Z,29.10
2018-07-27T22:39:43.463Z,29.10
2018-07-27T22:42:11.595Z,29.10
2018-07-27T22:44:39.734Z,29.10
2018-07-27T22:47:07.868Z,29.10
2018-07-27T22:49:35.980Z,29.00
2018-07-27T22:52:04.127Z,29.00
2018-07-27T22:54:32.262Z,29.00
2018-07-27T22:57:00.423Z,29.00
2018-07-27T22:59:28.556Z,29.00
2018-07-27T23:01:56.686Z,28.90
2018-07-27T23:04:24.845Z,28.90
2018-07-27T23:06:53.004Z,28.90
2018-07-27T23:09:21.134Z,28.90
2018-07-27T23:11:49.262Z,28.80
2018-07-27T23:16:45.301Z,28.80
2018-07-27T23:19:13.441Z,28.80
2018-07-27T23:21:41.565Z,28.70
2018-07-27T23:24:09.716Z,28.70
2018-07-27T23:26:37.855Z,28.70
2018-07-27T23:29:06.003Z,28.60
2018-07-27T23:31:34.133Z,28.60
2018-07-27T23:34:02.341Z,28.60
2018-07-27T23:36:30.481Z,28.50
2018-07-27T23:38:58.632Z,28.50
2018-07-27T23:41:26.771Z,28.50
2018-07-27T23:43:54.903Z,28.50
2018-07-27T23:46:23.041Z,28.40
2018-07-27T23:48:51.188Z,28.40
2018-07-27T23:51:19.311Z,28.40
2018-07-27T23:53:47.446Z,28.40
2018-07-27T23:56:15.633Z,28.30
2018-07-27T23:58:43.761Z,28.30
